sensor_id;sensor_type;location;lat;lon;timestamp;temperature;humidity
64396;DHT22;50717;53.360;6.290;2023-04-25T00:00:05;7.00;99.90
64396;DHT22;50717;53.360;6.290;2023-04-25T00:02:33;6.80;99.90
64396;DHT22;50717;53.360;6.290;2023-04-25T00:05:01;6.80;99.90
64396;DHT22;50717;53.360;6.290;2023-04-25T00:07:27;6.90;99.90
64396;DHT22;50717;53.360;6.290;2023-04-25T00:09:53;6.60;99.90
64396;DHT22;50717;53.360;6.290;2023-04-25T00:12:18;7.00;99.90
64396;DHT22;50717;53.360;6.290;2023-04-25T00:14:45;6.80;99.90
64396;DHT22;50717;53.360;6.290;2023-04-25T00:17:11;6.80;99.90
64396;DHT22;50717;53.360;6.290;2023-04-25T00:19:37;6.70;99.90
64396;DHT22;50717;53.360;6.290;2023-04-25T00:22:03;7.40;99.90
64396;DHT22;50717;53.360;6.290;2023-04-25T00:24:29;7.00;99.90
64396;DHT22;50717;53.360;6.290;2023-04-25T00:26:55;6.80;99.90
64396;DHT22;50717;53.360;6.290;2023-04-25T00:29:20;7.10;99.90
64396;DHT22;50717;53.360;6.290;2023-04-25T00:31:46;7.00;99.90
64396;DHT22;50717;53.360;6.290;2023-04-25T00:34:12;7.00;99.90
64396;DHT22;50717;53.360;6.290;2023-04-25T00:36:37;7.00;99.90
64396;DHT22;50717;53.360;6.290;2023-04-25T00:39:03;6.80;99.90
64396;DHT22;50717;53.360;6.290;2023-04-25T00:41:30;7.00;99.90
64396;DHT22;50717;53.360;6.290;2023-04-25T00:43:56;6.80;99.90
64396;DHT22;50717;53.360;6.290;2023-04-25T00:46:23;6.80;99.90
64396;DHT22;50717;53.360;6.290;2023-04-25T00:48:48;6.80;99.90
64396;DHT22;50717;53.360;6.290;2023-04-25T00:51:19;6.90;99.90
64396;DHT22;50717;53.360;6.290;2023-04-25T00:53:46;6.80;99.90
64396;DHT22;50717;53.360;6.290;2023-04-25T00:56:13;6.80;99.90
64396;DHT22;50717;53.360;6.290;2023-04-25T00:58:40;6.90;99.90
64396;DHT22;50717;53.360;6.290;2023-04-25T01:01:07;7.30;99.90
64396;DHT22;50717;53.360;6.290;2023-04-25T01:03:34;6.60;99.90
64396;DHT22;50717;53.360;6.290;2023-04-25T01:06:08;6.80;99.90
64396;DHT22;50717;53.360;6.290;2023-04-25T01:08:34;6.80;99.90
64396;DHT22;50717;53.360;6.290;2023-04-25T01:11:01;6.50;99.90
64396;DHT22;50717;53.360;6.290;2023-04-25T01:13:27;6.60;99.90
64396;DHT22;50717;53.360;6.290;2023-04-25T01:15:52;6.80;99.90
64396;DHT22;50717;53.360;6.290;2023-04-25T01:18:19;6.90;99.90
64396;DHT22;50717;53.360;6.290;2023-04-25T01:20:46;6.70;99.90
64396;DHT22;50717;53.360;6.290;2023-04-25T01:23:13;6.80;99.90
64396;DHT22;50717;53.360;6.290;2023-04-25T01:25:40;6.70;99.90
64396;DHT22;50717;53.360;6.290;2023-04-25T01:28:06;6.90;99.90
64396;DHT22;50717;53.360;6.290;2023-04-25T01:30:31;6.90;99.90
64396;DHT22;50717;53.360;6.290;2023-04-25T01:32:57;6.70;99.90
64396;DHT22;50717;53.360;6.290;2023-04-25T01:35:24;6.70;99.90
64396;DHT22;50717;53.360;6.290;2023-04-25T01:37:51;6.80;99.90
64396;DHT22;50717;53.360;6.290;2023-04-25T01:40:17;6.90;99.90
64396;DHT22;50717;53.360;6.290;2023-04-25T01:42:44;6.70;99.90
64396;DHT22;50717;53.360;6.290;2023-04-25T01:45:11;6.60;99.90
64396;DHT22;50717;53.360;6.290;2023-04-25T01:47:38;6.40;99.90
64396;DHT22;50717;53.360;6.290;2023-04-25T01:50:07;6.20;99.90
64396;DHT22;50717;53.360;6.290;2023-04-25T01:52:32;6.30;99.90
64396;DHT22;50717;53.360;6.290;2023-04-25T01:55:01;6.40;99.90
64396;DHT22;50717;53.360;6.290;2023-04-25T01:57:27;6.30;99.90
64396;DHT22;50717;53.360;6.290;2023-04-25T01:59:58;6.00;99.90
64396;DHT22;50717;53.360;6.290;2023-04-25T02:02:24;6.10;99.90
64396;DHT22;50717;53.360;6.290;2023-04-25T02:04:51;6.10;99.90
64396;DHT22;50717;53.360;6.290;2023-04-25T02:07:17;6.10;99.90
64396;DHT22;50717;53.360;6.290;2023-04-25T02:12:10;6.00;99.90
64396;DHT22;50717;53.360;6.290;2023-04-25T02:14:36;6.40;99.90
64396;DHT22;50717;53.360;6.290;2023-04-25T02:17:02;6.50;99.90
64396;DHT22;50717;53.360;6.290;2023-04-25T02:19:28;6.10;99.90
64396;DHT22;50717;53.360;6.290;2023-04-25T02:21:53;6.10;99.90
64396;DHT22;50717;53.360;6.290;2023-04-25T02:24:19;6.40;99.90
64396;DHT22;50717;53.360;6.290;2023-04-25T02:26:45;6.30;99.90
64396;DHT22;50717;53.360;6.290;2023-04-25T02:29:12;6.40;99.90
64396;DHT22;50717;53.360;6.290;2023-04-25T02:31:38;6.30;99.90
64396;DHT22;50717;53.360;6.290;2023-04-25T02:34:04;6.20;99.90
64396;DHT22;50717;53.360;6.290;2023-04-25T02:36:30;6.40;99.90
64396;DHT22;50717;53.360;6.290;2023-04-25T02:39:00;6.20;99.90
64396;DHT22;50717;53.360;6.290;2023-04-25T02:41:26;6.40;99.90
64396;DHT22;50717;53.360;6.290;2023-04-25T02:43:52;6.20;99.90
64396;DHT22;50717;53.360;6.290;2023-04-25T02:46:17;6.10;99.90
64396;DHT22;50717;53.360;6.290;2023-04-25T02:48:43;6.10;99.90
64396;DHT22;50717;53.360;6.290;2023-04-25T02:51:09;6.20;99.90
64396;DHT22;50717;53.360;6.290;2023-04-25T02:53:35;6.10;99.90
64396;DHT22;50717;53.360;6.290;2023-04-25T02:56:01;6.00;99.90
64396;DHT22;50717;53.360;6.290;2023-04-25T02:58:26;5.90;99.90
64396;DHT22;50717;53.360;6.290;2023-04-25T03:00:52;5.90;99.90
64396;DHT22;50717;53.360;6.290;2023-04-25T03:03:18;6.00;99.90
64396;DHT22;50717;53.360;6.290;2023-04-25T03:05:50;6.00;99.90
64396;DHT22;50717;53.360;6.290;2023-04-25T03:08:16;5.60;99.90
64396;DHT22;50717;53.360;6.290;2023-04-25T03:10:42;6.10;99.90
64396;DHT22;50717;53.360;6.290;2023-04-25T03:13:08;6.20;99.90
64396;DHT22;50717;53.360;6.290;2023-04-25T03:15:35;6.10;99.90
64396;DHT22;50717;53.360;6.290;2023-04-25T03:18:00;6.00;99.90
64396;DHT22;50717;53.360;6.290;2023-04-25T03:20:26;6.10;99.90
64396;DHT22;50717;53.360;6.290;2023-04-25T03:22:52;6.10;99.90
64396;DHT22;50717;53.360;6.290;2023-04-25T03:25:18;6.10;99.90
64396;DHT22;50717;53.360;6.290;2023-04-25T03:27:43;6.00;99.90
64396;DHT22;50717;53.360;6.290;2023-04-25T03:32:35;6.00;99.90
64396;DHT22;50717;53.360;6.290;2023-04-25T03:35:01;6.10;99.90
64396;DHT22;50717;53.360;6.290;2023-04-25T03:37:26;6.10;99.90
64396;DHT22;50717;53.360;6.290;2023-04-25T03:39:52;5.70;99.90
64396;DHT22;50717;53.360;6.290;2023-04-25T03:42:18;6.00;99.90
64396;DHT22;50717;53.360;6.290;2023-04-25T03:44:44;5.90;99.90
64396;DHT22;50717;53.360;6.290;2023-04-25T03:47:09;6.00;99.90
64396;DHT22;50717;53.360;6.290;2023-04-25T03:49:35;5.90;99.90
64396;DHT22;50717;53.360;6.290;2023-04-25T03:52:02;6.00;99.90
64396;DHT22;50717;53.360;6.290;2023-04-25T03:54:27;5.80;99.90
64396;DHT22;50717;53.360;6.290;2023-04-25T03:56:53;5.80;99.90
64396;DHT22;50717;53.360;6.290;2023-04-25T03:59:19;5.80;99.90
64396;DHT22;50717;53.360;6.290;2023-04-25T04:01:44;6.10;99.90
64396;DHT22;50717;53.360;6.290;2023-04-25T04:04:10;5.80;99.90
64396;DHT22;50717;53.360;6.290;2023-04-25T04:06:36;5.80;99.90
64396;DHT22;50717;53.360;6.290;2023-04-25T04:09:02;5.90;99.90
64396;DHT22;50717;53.360;6.290;2023-04-25T04:11:28;5.60;99.90
64396;DHT22;50717;53.360;6.290;2023-04-25T04:13:54;5.60;99.90
64396;DHT22;50717;53.360;6.290;2023-04-25T04:16:20;5.40;99.90
64396;DHT22;50717;53.360;6.290;2023-04-25T04:18:46;5.80;99.90
64396;DHT22;50717;53.360;6.290;2023-04-25T04:21:11;5.60;99.90
64396;DHT22;50717;53.360;6.290;2023-04-25T04:23:37;5.70;99.90
64396;DHT22;50717;53.360;6.290;2023-04-25T04:26:03;5.50;99.90
64396;DHT22;50717;53.360;6.290;2023-04-25T04:28:28;5.70;99.90
64396;DHT22;50717;53.360;6.290;2023-04-25T04:30:55;5.80;99.90
64396;DHT22;50717;53.360;6.290;2023-04-25T04:33:21;5.90;99.90
64396;DHT22;50717;53.360;6.290;2023-04-25T04:35:47;6.20;99.90
64396;DHT22;50717;53.360;6.290;2023-04-25T04:38:15;5.50;99.90
64396;DHT22;50717;53.360;6.290;2023-04-25T04:40:41;5.50;99.90
64396;DHT22;50717;53.360;6.290;2023-04-25T04:43:09;5.40;99.90
64396;DHT22;50717;53.360;6.290;2023-04-25T04:45:36;5.20;99.90
64396;DHT22;50717;53.360;6.290;2023-04-25T04:48:05;5.00;99.90
64396;DHT22;50717;53.360;6.290;2023-04-25T04:50:31;5.10;99.90
64396;DHT22;50717;53.360;6.290;2023-04-25T04:52:58;4.80;99.90
64396;DHT22;50717;53.360;6.290;2023-04-25T04:55:23;5.20;99.90
64396;DHT22;50717;53.360;6.290;2023-04-25T04:57:49;5.00;99.90
64396;DHT22;50717;53.360;6.290;2023-04-25T05:00:15;5.20;99.90
64396;DHT22;50717;53.360;6.290;2023-04-25T05:02:41;5.10;99.90
64396;DHT22;50717;53.360;6.290;2023-04-25T05:05:07;5.40;99.90
64396;DHT22;50717;53.360;6.290;2023-04-25T05:07:33;5.20;99.90
64396;DHT22;50717;53.360;6.290;2023-04-25T05:09:59;5.10;99.90
64396;DHT22;50717;53.360;6.290;2023-04-25T05:12:25;5.60;99.90
64396;DHT22;50717;53.360;6.290;2023-04-25T05:14:50;5.60;99.90
64396;DHT22;50717;53.360;6.290;2023-04-25T05:17:16;5.80;99.90
64396;DHT22;50717;53.360;6.290;2023-04-25T05:19:42;6.10;99.90
64396;DHT22;50717;53.360;6.290;2023-04-25T05:22:07;6.20;99.90
64396;DHT22;50717;53.360;6.290;2023-04-25T05:24:33;6.30;99.90
64396;DHT22;50717;53.360;6.290;2023-04-25T05:26:59;6.30;99.90
64396;DHT22;50717;53.360;6.290;2023-04-25T05:29:25;6.10;99.90
64396;DHT22;50717;53.360;6.290;2023-04-25T05:31:50;6.00;99.90
64396;DHT22;50717;53.360;6.290;2023-04-25T05:34:16;5.60;99.90
64396;DHT22;50717;53.360;6.290;2023-04-25T05:36:42;6.10;99.90
64396;DHT22;50717;53.360;6.290;2023-04-25T05:39:07;6.10;99.90
64396;DHT22;50717;53.360;6.290;2023-04-25T05:41:34;6.10;99.90
64396;DHT22;50717;53.360;6.290;2023-04-25T05:43:59;6.00;99.90
64396;DHT22;50717;53.360;6.290;2023-04-25T05:46:25;5.70;99.90
64396;DHT22;50717;53.360;6.290;2023-04-25T05:48:51;5.90;99.90
64396;DHT22;50717;53.360;6.290;2023-04-25T05:51:16;6.00;99.90
64396;DHT22;50717;53.360;6.290;2023-04-25T05:53:44;6.10;99.90
64396;DHT22;50717;53.360;6.290;2023-04-25T05:56:09;6.40;99.90
64396;DHT22;50717;53.360;6.290;2023-04-25T05:58:35;6.60;99.90
64396;DHT22;50717;53.360;6.290;2023-04-25T06:01:01;7.10;99.90
64396;DHT22;50717;53.360;6.290;2023-04-25T06:03:28;6.80;99.90
64396;DHT22;50717;53.360;6.290;2023-04-25T06:05:53;7.00;99.90
64396;DHT22;50717;53.360;6.290;2023-04-25T06:08:19;7.10;99.90
64396;DHT22;50717;53.360;6.290;2023-04-25T06:10:45;7.30;99.90
64396;DHT22;50717;53.360;6.290;2023-04-25T06:13:10;7.30;99.90
64396;DHT22;50717;53.360;6.290;2023-04-25T06:15:36;6.90;99.90
64396;DHT22;50717;53.360;6.290;2023-04-25T06:18:02;7.30;99.90
64396;DHT22;50717;53.360;6.290;2023-04-25T06:20:28;7.20;99.90
64396;DHT22;50717;53.360;6.290;2023-04-25T06:22:53;6.60;99.90
64396;DHT22;50717;53.360;6.290;2023-04-25T06:25:19;6.70;99.90
64396;DHT22;50717;53.360;6.290;2023-04-25T06:27:45;6.50;99.90
64396;DHT22;50717;53.360;6.290;2023-04-25T06:30:11;6.60;99.90
64396;DHT22;50717;53.360;6.290;2023-04-25T06:32:38;6.50;99.90
64396;DHT22;50717;53.360;6.290;2023-04-25T06:35:04;6.60;99.90
64396;DHT22;50717;53.360;6.290;2023-04-25T06:37:30;6.80;99.90
64396;DHT22;50717;53.360;6.290;2023-04-25T06:39:56;6.50;99.90
64396;DHT22;50717;53.360;6.290;2023-04-25T06:42:22;6.50;99.90
64396;DHT22;50717;53.360;6.290;2023-04-25T06:44:47;6.70;99.90
64396;DHT22;50717;53.360;6.290;2023-04-25T06:47:14;6.80;99.90
64396;DHT22;50717;53.360;6.290;2023-04-25T06:49:40;6.60;99.90
64396;DHT22;50717;53.360;6.290;2023-04-25T06:52:05;6.80;99.90
64396;DHT22;50717;53.360;6.290;2023-04-25T06:54:31;6.80;99.90
64396;DHT22;50717;53.360;6.290;2023-04-25T06:56:57;7.10;99.90
64396;DHT22;50717;53.360;6.290;2023-04-25T06:59:23;7.10;99.90
64396;DHT22;50717;53.360;6.290;2023-04-25T07:01:48;6.90;99.90
64396;DHT22;50717;53.360;6.290;2023-04-25T07:04:14;7.10;99.90
64396;DHT22;50717;53.360;6.290;2023-04-25T07:06:40;7.10;99.90
64396;DHT22;50717;53.360;6.290;2023-04-25T07:09:08;7.20;99.90
64396;DHT22;50717;53.360;6.290;2023-04-25T07:11:35;7.20;99.90
64396;DHT22;50717;53.360;6.290;2023-04-25T07:14:02;7.20;99.90
64396;DHT22;50717;53.360;6.290;2023-04-25T07:16:28;7.20;99.90
64396;DHT22;50717;53.360;6.290;2023-04-25T07:18:53;6.80;99.90
64396;DHT22;50717;53.360;6.290;2023-04-25T07:21:19;6.90;99.90
64396;DHT22;50717;53.360;6.290;2023-04-25T07:23:45;6.60;99.90
64396;DHT22;50717;53.360;6.290;2023-04-25T07:26:11;6.40;99.90
64396;DHT22;50717;53.360;6.290;2023-04-25T07:28:37;6.60;99.90
64396;DHT22;50717;53.360;6.290;2023-04-25T07:31:02;7.00;99.90
64396;DHT22;50717;53.360;6.290;2023-04-25T07:33:29;7.20;99.90
64396;DHT22;50717;53.360;6.290;2023-04-25T07:35:55;7.60;99.90
64396;DHT22;50717;53.360;6.290;2023-04-25T07:38:21;7.70;99.90
64396;DHT22;50717;53.360;6.290;2023-04-25T07:40:48;8.00;99.90
64396;DHT22;50717;53.360;6.290;2023-04-25T07:43:14;6.80;99.90
64396;DHT22;50717;53.360;6.290;2023-04-25T07:45:43;6.30;99.90
64396;DHT22;50717;53.360;6.290;2023-04-25T07:50:35;5.60;99.90
64396;DHT22;50717;53.360;6.290;2023-04-25T07:55:27;4.90;99.90
64396;DHT22;50717;53.360;6.290;2023-04-25T07:57:53;4.80;99.90
64396;DHT22;50717;53.360;6.290;2023-04-25T08:00:19;4.70;99.90
64396;DHT22;50717;53.360;6.290;2023-04-25T08:02:45;4.90;99.90
64396;DHT22;50717;53.360;6.290;2023-04-25T08:05:11;4.90;99.90
64396;DHT22;50717;53.360;6.290;2023-04-25T08:07:40;5.10;99.90
64396;DHT22;50717;53.360;6.290;2023-04-25T08:10:07;5.30;99.90
64396;DHT22;50717;53.360;6.290;2023-04-25T08:12:33;5.30;99.90
64396;DHT22;50717;53.360;6.290;2023-04-25T08:14:58;5.40;99.90
64396;DHT22;50717;53.360;6.290;2023-04-25T08:17:24;5.70;99.90
64396;DHT22;50717;53.360;6.290;2023-04-25T08:22:16;6.00;99.90
64396;DHT22;50717;53.360;6.290;2023-04-25T08:24:41;6.30;99.90
64396;DHT22;50717;53.360;6.290;2023-04-25T08:27:07;6.60;99.90
64396;DHT22;50717;53.360;6.290;2023-04-25T08:29:33;6.50;99.90
64396;DHT22;50717;53.360;6.290;2023-04-25T08:31:59;6.70;99.90
64396;DHT22;50717;53.360;6.290;2023-04-25T08:34:25;7.20;99.90
64396;DHT22;50717;53.360;6.290;2023-04-25T08:36:51;7.40;99.90
64396;DHT22;50717;53.360;6.290;2023-04-25T08:39:17;7.70;99.90
64396;DHT22;50717;53.360;6.290;2023-04-25T08:41:43;7.30;99.90
64396;DHT22;50717;53.360;6.290;2023-04-25T08:44:13;7.70;99.90
64396;DHT22;50717;53.360;6.290;2023-04-25T08:46:39;7.80;99.90
64396;DHT22;50717;53.360;6.290;2023-04-25T08:49:08;8.50;99.90
64396;DHT22;50717;53.360;6.290;2023-04-25T08:51:45;8.40;99.90
64396;DHT22;50717;53.360;6.290;2023-04-25T08:54:15;8.80;99.90
64396;DHT22;50717;53.360;6.290;2023-04-25T08:56:44;8.70;99.90
64396;DHT22;50717;53.360;6.290;2023-04-25T08:59:11;8.90;99.90
64396;DHT22;50717;53.360;6.290;2023-04-25T09:01:37;8.70;99.90
64396;DHT22;50717;53.360;6.290;2023-04-25T09:04:03;8.50;99.90
64396;DHT22;50717;53.360;6.290;2023-04-25T09:06:29;8.00;99.90
64396;DHT22;50717;53.360;6.290;2023-04-25T09:09:02;8.20;99.90
64396;DHT22;50717;53.360;6.290;2023-04-25T09:11:29;7.60;99.90
64396;DHT22;50717;53.360;6.290;2023-04-25T09:14:28;8.10;99.90
64396;DHT22;50717;53.360;6.290;2023-04-25T09:19:33;8.20;99.90
64396;DHT22;50717;53.360;6.290;2023-04-25T09:22:02;8.60;99.90
64396;DHT22;50717;53.360;6.290;2023-04-25T09:24:38;8.60;99.90
64396;DHT22;50717;53.360;6.290;2023-04-25T09:27:09;8.50;99.90
64396;DHT22;50717;53.360;6.290;2023-04-25T09:29:37;8.30;99.90
64396;DHT22;50717;53.360;6.290;2023-04-25T09:32:19;8.30;99.90
64396;DHT22;50717;53.360;6.290;2023-04-25T09:34:47;8.60;99.90
64396;DHT22;50717;53.360;6.290;2023-04-25T09:37:29;8.80;99.90
64396;DHT22;50717;53.360;6.290;2023-04-25T09:39:59;8.90;99.90
64396;DHT22;50717;53.360;6.290;2023-04-25T09:42:28;9.00;99.90
64396;DHT22;50717;53.360;6.290;2023-04-25T09:44:57;9.00;99.90
64396;DHT22;50717;53.360;6.290;2023-04-25T09:47:23;9.40;99.90
64396;DHT22;50717;53.360;6.290;2023-04-25T09:49:51;9.70;99.90
64396;DHT22;50717;53.360;6.290;2023-04-25T09:52:19;9.80;99.90
64396;DHT22;50717;53.360;6.290;2023-04-25T09:54:46;9.30;99.90
64396;DHT22;50717;53.360;6.290;2023-04-25T09:57:20;7.80;99.90
64396;DHT22;50717;53.360;6.290;2023-04-25T09:59:49;8.60;99.90
64396;DHT22;50717;53.360;6.290;2023-04-25T10:02:23;9.00;99.90
64396;DHT22;50717;53.360;6.290;2023-04-25T10:04:53;9.00;99.90
64396;DHT22;50717;53.360;6.290;2023-04-25T10:07:25;9.20;99.90
64396;DHT22;50717;53.360;6.290;2023-04-25T10:09:58;9.60;99.90
64396;DHT22;50717;53.360;6.290;2023-04-25T10:12:33;9.60;99.90
64396;DHT22;50717;53.360;6.290;2023-04-25T10:14:59;9.90;99.90
64396;DHT22;50717;53.360;6.290;2023-04-25T10:17:28;9.20;99.90
64396;DHT22;50717;53.360;6.290;2023-04-25T10:19:55;8.70;99.90
64396;DHT22;50717;53.360;6.290;2023-04-25T10:22:29;8.20;99.90
64396;DHT22;50717;53.360;6.290;2023-04-25T10:24:56;7.90;99.90
64396;DHT22;50717;53.360;6.290;2023-04-25T10:27:22;7.70;99.90
64396;DHT22;50717;53.360;6.290;2023-04-25T10:30:03;7.90;99.90
64396;DHT22;50717;53.360;6.290;2023-04-25T10:35:15;8.50;99.90
64396;DHT22;50717;53.360;6.290;2023-04-25T10:38:16;9.10;99.90
64396;DHT22;50717;53.360;6.290;2023-04-25T10:41:02;8.30;99.90
64396;DHT22;50717;53.360;6.290;2023-04-25T10:45:59;9.80;99.90
64396;DHT22;50717;53.360;6.290;2023-04-25T10:48:26;8.70;99.90
64396;DHT22;50717;53.360;6.290;2023-04-25T10:51:09;9.00;99.90
64396;DHT22;50717;53.360;6.290;2023-04-25T10:53:35;8.90;99.90
64396;DHT22;50717;53.360;6.290;2023-04-25T10:56:30;8.90;99.90
64396;DHT22;50717;53.360;6.290;2023-04-25T10:59:15;9.00;99.90
64396;DHT22;50717;53.360;6.290;2023-04-25T11:01:46;9.10;99.90
64396;DHT22;50717;53.360;6.290;2023-04-25T11:04:32;9.20;99.90
64396;DHT22;50717;53.360;6.290;2023-04-25T11:07:16;9.00;99.90
64396;DHT22;50717;53.360;6.290;2023-04-25T11:09:45;9.10;99.90
64396;DHT22;50717;53.360;6.290;2023-04-25T11:12:11;9.50;99.90
64396;DHT22;50717;53.360;6.290;2023-04-25T11:14:38;9.20;99.90
64396;DHT22;50717;53.360;6.290;2023-04-25T11:17:04;9.20;99.90
64396;DHT22;50717;53.360;6.290;2023-04-25T11:19:31;9.60;99.90
64396;DHT22;50717;53.360;6.290;2023-04-25T11:22:01;9.30;99.90
64396;DHT22;50717;53.360;6.290;2023-04-25T11:24:31;9.70;99.90
64396;DHT22;50717;53.360;6.290;2023-04-25T11:27:02;9.60;99.90
64396;DHT22;50717;53.360;6.290;2023-04-25T11:29:29;9.70;99.90
64396;DHT22;50717;53.360;6.290;2023-04-25T11:31:56;9.60;99.90
64396;DHT22;50717;53.360;6.290;2023-04-25T11:34:27;9.30;99.90
64396;DHT22;50717;53.360;6.290;2023-04-25T11:36:53;9.30;99.90
64396;DHT22;50717;53.360;6.290;2023-04-25T11:39:19;9.60;99.90
64396;DHT22;50717;53.360;6.290;2023-04-25T11:41:46;8.90;99.90
64396;DHT22;50717;53.360;6.290;2023-04-25T11:44:12;9.30;99.90
64396;DHT22;50717;53.360;6.290;2023-04-25T11:46:40;9.60;99.90
64396;DHT22;50717;53.360;6.290;2023-04-25T11:49:06;9.70;99.90
64396;DHT22;50717;53.360;6.290;2023-04-25T11:51:41;9.50;99.90
64396;DHT22;50717;53.360;6.290;2023-04-25T11:54:07;9.90;99.90
64396;DHT22;50717;53.360;6.290;2023-04-25T11:56:33;10.20;99.90
64396;DHT22;50717;53.360;6.290;2023-04-25T11:59:05;10.10;99.90
64396;DHT22;50717;53.360;6.290;2023-04-25T12:01:36;9.80;99.90
64396;DHT22;50717;53.360;6.290;2023-04-25T12:04:22;9.40;99.90
64396;DHT22;50717;53.360;6.290;2023-04-25T12:06:50;9.80;99.90
64396;DHT22;50717;53.360;6.290;2023-04-25T12:09:19;10.00;99.90
64396;DHT22;50717;53.360;6.290;2023-04-25T12:11:57;10.20;99.90
64396;DHT22;50717;53.360;6.290;2023-04-25T12:14:28;9.70;99.90
64396;DHT22;50717;53.360;6.290;2023-04-25T12:16:56;9.80;99.90
64396;DHT22;50717;53.360;6.290;2023-04-25T12:19:23;9.90;99.90
64396;DHT22;50717;53.360;6.290;2023-04-25T12:21:49;9.90;99.90
64396;DHT22;50717;53.360;6.290;2023-04-25T12:24:17;9.80;99.90
64396;DHT22;50717;53.360;6.290;2023-04-25T12:26:54;9.90;99.90
64396;DHT22;50717;53.360;6.290;2023-04-25T12:29:26;10.40;99.90
64396;DHT22;50717;53.360;6.290;2023-04-25T12:31:53;11.80;99.90
64396;DHT22;50717;53.360;6.290;2023-04-25T12:34:20;10.20;99.90
64396;DHT22;50717;53.360;6.290;2023-04-25T12:36:47;9.60;99.90
64396;DHT22;50717;53.360;6.290;2023-04-25T12:39:21;9.20;99.90
64396;DHT22;50717;53.360;6.290;2023-04-25T12:41:48;9.10;99.90
64396;DHT22;50717;53.360;6.290;2023-04-25T12:44:14;9.30;99.90
64396;DHT22;50717;53.360;6.290;2023-04-25T12:46:41;9.20;99.90
64396;DHT22;50717;53.360;6.290;2023-04-25T12:49:06;9.50;99.90
64396;DHT22;50717;53.360;6.290;2023-04-25T12:51:34;9.90;99.90
64396;DHT22;50717;53.360;6.290;2023-04-25T12:54:00;10.20;99.90
64396;DHT22;50717;53.360;6.290;2023-04-25T12:56:27;10.00;99.90
64396;DHT22;50717;53.360;6.290;2023-04-25T12:58:53;10.30;99.90
64396;DHT22;50717;53.360;6.290;2023-04-25T13:01:22;10.30;99.90
64396;DHT22;50717;53.360;6.290;2023-04-25T13:03:48;10.10;99.90
64396;DHT22;50717;53.360;6.290;2023-04-25T13:06:14;9.90;99.90
64396;DHT22;50717;53.360;6.290;2023-04-25T13:08:40;9.90;99.90
64396;DHT22;50717;53.360;6.290;2023-04-25T13:11:06;10.40;99.90
64396;DHT22;50717;53.360;6.290;2023-04-25T13:13:32;10.40;99.90
64396;DHT22;50717;53.360;6.290;2023-04-25T13:16:03;10.60;99.90
64396;DHT22;50717;53.360;6.290;2023-04-25T13:18:30;10.60;99.90
64396;DHT22;50717;53.360;6.290;2023-04-25T13:20:56;10.60;99.90
64396;DHT22;50717;53.360;6.290;2023-04-25T13:23:23;10.30;99.90
64396;DHT22;50717;53.360;6.290;2023-04-25T13:25:49;10.40;99.90
64396;DHT22;50717;53.360;6.290;2023-04-25T13:28:15;10.20;99.90
64396;DHT22;50717;53.360;6.290;2023-04-25T13:30:42;10.20;99.90
64396;DHT22;50717;53.360;6.290;2023-04-25T13:33:07;10.80;99.90
64396;DHT22;50717;53.360;6.290;2023-04-25T13:35:35;10.70;99.90
64396;DHT22;50717;53.360;6.290;2023-04-25T13:38:01;10.70;99.90
64396;DHT22;50717;53.360;6.290;2023-04-25T13:40:26;10.70;99.90
64396;DHT22;50717;53.360;6.290;2023-04-25T13:42:52;10.70;99.90
64396;DHT22;50717;53.360;6.290;2023-04-25T13:45:19;10.60;99.90
64396;DHT22;50717;53.360;6.290;2023-04-25T13:47:45;10.60;99.90
64396;DHT22;50717;53.360;6.290;2023-04-25T13:50:11;10.50;99.90
64396;DHT22;50717;53.360;6.290;2023-04-25T13:52:37;10.70;99.90
64396;DHT22;50717;53.360;6.290;2023-04-25T13:55:03;10.90;99.90
64396;DHT22;50717;53.360;6.290;2023-04-25T13:57:30;10.80;99.90
64396;DHT22;50717;53.360;6.290;2023-04-25T13:59:56;11.20;99.90
64396;DHT22;50717;53.360;6.290;2023-04-25T14:02:22;11.20;99.90
64396;DHT22;50717;53.360;6.290;2023-04-25T14:04:48;10.70;99.90
64396;DHT22;50717;53.360;6.290;2023-04-25T14:07:14;10.40;99.90
64396;DHT22;50717;53.360;6.290;2023-04-25T14:09:44;10.50;99.90
64396;DHT22;50717;53.360;6.290;2023-04-25T14:12:10;10.70;99.90
64396;DHT22;50717;53.360;6.290;2023-04-25T14:14:36;10.60;99.90
64396;DHT22;50717;53.360;6.290;2023-04-25T14:17:03;10.30;99.90
64396;DHT22;50717;53.360;6.290;2023-04-25T14:19:29;10.20;99.90
64396;DHT22;50717;53.360;6.290;2023-04-25T14:21:55;10.60;99.90
64396;DHT22;50717;53.360;6.290;2023-04-25T14:24:20;10.80;99.90
64396;DHT22;50717;53.360;6.290;2023-04-25T14:26:46;11.00;99.90
64396;DHT22;50717;53.360;6.290;2023-04-25T14:29:12;11.00;99.90
64396;DHT22;50717;53.360;6.290;2023-04-25T14:31:38;11.50;99.90
64396;DHT22;50717;53.360;6.290;2023-04-25T14:34:05;11.60;99.90
64396;DHT22;50717;53.360;6.290;2023-04-25T14:36:32;11.20;99.90
64396;DHT22;50717;53.360;6.290;2023-04-25T14:38:58;11.30;99.90
64396;DHT22;50717;53.360;6.290;2023-04-25T14:41:25;11.60;99.90
64396;DHT22;50717;53.360;6.290;2023-04-25T14:43:51;11.90;99.90
64396;DHT22;50717;53.360;6.290;2023-04-25T14:46:18;12.00;99.90
64396;DHT22;50717;53.360;6.290;2023-04-25T14:48:45;11.90;99.90
64396;DHT22;50717;53.360;6.290;2023-04-25T14:51:11;12.10;99.90
64396;DHT22;50717;53.360;6.290;2023-04-25T14:53:36;12.00;99.90
64396;DHT22;50717;53.360;6.290;2023-04-25T14:56:02;12.30;99.90
64396;DHT22;50717;53.360;6.290;2023-04-25T14:58:28;12.00;99.90
64396;DHT22;50717;53.360;6.290;2023-04-25T15:00:54;12.00;99.90
64396;DHT22;50717;53.360;6.290;2023-04-25T15:03:20;12.00;99.90
64396;DHT22;50717;53.360;6.290;2023-04-25T15:05:45;12.20;99.90
64396;DHT22;50717;53.360;6.290;2023-04-25T15:08:11;11.80;99.90
64396;DHT22;50717;53.360;6.290;2023-04-25T15:10:37;11.80;99.90
64396;DHT22;50717;53.360;6.290;2023-04-25T15:13:03;11.40;99.90
64396;DHT22;50717;53.360;6.290;2023-04-25T15:15:29;11.60;99.90
64396;DHT22;50717;53.360;6.290;2023-04-25T15:17:55;12.00;99.90
64396;DHT22;50717;53.360;6.290;2023-04-25T15:20:21;12.10;99.90
64396;DHT22;50717;53.360;6.290;2023-04-25T15:22:47;12.00;99.90
64396;DHT22;50717;53.360;6.290;2023-04-25T15:25:15;12.50;99.90
64396;DHT22;50717;53.360;6.290;2023-04-25T15:27:43;13.00;99.90
64396;DHT22;50717;53.360;6.290;2023-04-25T15:30:11;11.60;99.90
64396;DHT22;50717;53.360;6.290;2023-04-25T15:32:38;12.10;99.90
64396;DHT22;50717;53.360;6.290;2023-04-25T15:35:05;12.10;99.90
64396;DHT22;50717;53.360;6.290;2023-04-25T15:37:32;11.80;99.90
64396;DHT22;50717;53.360;6.290;2023-04-25T15:42:35;12.20;99.90
64396;DHT22;50717;53.360;6.290;2023-04-25T15:45:03;12.10;99.90
64396;DHT22;50717;53.360;6.290;2023-04-25T15:47:29;12.30;99.90
64396;DHT22;50717;53.360;6.290;2023-04-25T15:49:55;12.10;99.90
64396;DHT22;50717;53.360;6.290;2023-04-25T15:52:20;12.60;99.90
64396;DHT22;50717;53.360;6.290;2023-04-25T15:54:46;12.40;99.90
64396;DHT22;50717;53.360;6.290;2023-04-25T15:57:12;12.20;99.90
64396;DHT22;50717;53.360;6.290;2023-04-25T15:59:38;12.20;99.90
64396;DHT22;50717;53.360;6.290;2023-04-25T16:02:03;11.20;99.90
64396;DHT22;50717;53.360;6.290;2023-04-25T16:04:29;11.40;99.90